sensor_id;sensor_type;location;lat;lon;timestamp;P1;durP1;ratioP1;P2;durP2;ratioP2
5900;SDS011;2976;49.764;9.796;2022-11-23T00:00:24;10.83;;;1.90;;
5900;SDS011;2976;49.764;9.796;2022-11-23T00:02:56;5.33;;;3.30;;
5900;SDS011;2976;49.764;9.796;2022-11-23T00:05:22;9.37;;;2.00;;
5900;SDS011;2976;49.764;9.796;2022-11-23T00:07:48;7.83;;;2.10;;
5900;SDS011;2976;49.764;9.796;2022-11-23T00:10:14;13.37;;;2.60;;
5900;SDS011;2976;49.764;9.796;2022-11-23T00:12:40;10.77;;;2.77;;
5900;SDS011;2976;49.764;9.796;2022-11-23T00:15:06;10.10;;;1.97;;
5900;SDS011;2976;49.764;9.796;2022-11-23T00:17:32;5.03;;;2.23;;
5900;SDS011;2976;49.764;9.796;2022-11-23T00:19:58;4.10;;;1.80;;
5900;SDS011;2976;49.764;9.796;2022-11-23T00:22:23;8.77;;;1.27;;
5900;SDS011;2976;49.764;9.796;2022-11-23T00:24:49;6.23;;;1.67;;
5900;SDS011;2976;49.764;9.796;2022-11-23T00:27:15;2.30;;;1.70;;
5900;SDS011;2976;49.764;9.796;2022-11-23T00:29:40;6.87;;;1.80;;
5900;SDS011;2976;49.764;9.796;2022-11-23T00:32:06;6.03;;;1.67;;
5900;SDS011;2976;49.764;9.796;2022-11-23T00:34:32;2.87;;;1.17;;
5900;SDS011;2976;49.764;9.796;2022-11-23T00:36:57;5.37;;;1.20;;
5900;SDS011;2976;49.764;9.796;2022-11-23T00:39:23;7.67;;;1.30;;
5900;SDS011;2976;49.764;9.796;2022-11-23T00:41:49;1.47;;;1.37;;
5900;SDS011;2976;49.764;9.796;2022-11-23T00:44:14;4.60;;;1.50;;
5900;SDS011;2976;49.764;9.796;2022-11-23T00:46:40;4.30;;;1.57;;
5900;SDS011;2976;49.764;9.796;2022-11-23T00:49:05;7.17;;;1.70;;
5900;SDS011;2976;49.764;9.796;2022-11-23T00:51:32;7.53;;;1.80;;
5900;SDS011;2976;49.764;9.796;2022-11-23T00:54:00;8.33;;;1.87;;
5900;SDS011;2976;49.764;9.796;2022-11-23T00:56:27;4.00;;;1.90;;
5900;SDS011;2976;49.764;9.796;2022-11-23T00:58:55;8.03;;;1.53;;
5900;SDS011;2976;49.764;9.796;2022-11-23T01:01:25;7.50;;;1.70;;
5900;SDS011;2976;49.764;9.796;2022-11-23T01:03:58;3.00;;;1.90;;
5900;SDS011;2976;49.764;9.796;2022-11-23T01:06:31;6.13;;;1.60;;
5900;SDS011;2976;49.764;9.796;2022-11-23T01:09:00;5.60;;;1.77;;
5900;SDS011;2976;49.764;9.796;2022-11-23T01:11:36;5.43;;;1.70;;
5900;SDS011;2976;49.764;9.796;2022-11-23T01:14:02;8.83;;;2.27;;
5900;SDS011;2976;49.764;9.796;2022-11-23T01:16:34;2.37;;;1.57;;
5900;SDS011;2976;49.764;9.796;2022-11-23T01:19:03;4.80;;;1.90;;
5900;SDS011;2976;49.764;9.796;2022-11-23T01:21:30;3.90;;;1.57;;
5900;SDS011;2976;49.764;9.796;2022-11-23T01:23:57;2.00;;;1.60;;
5900;SDS011;2976;49.764;9.796;2022-11-23T01:26:22;4.30;;;1.90;;
5900;SDS011;2976;49.764;9.796;2022-11-23T01:28:48;5.40;;;1.80;;
5900;SDS011;2976;49.764;9.796;2022-11-23T01:31:15;4.63;;;2.30;;
5900;SDS011;2976;49.764;9.796;2022-11-23T01:33:46;6.00;;;2.10;;
5900;SDS011;2976;49.764;9.796;2022-11-23T01:38:37;4.83;;;1.97;;
5900;SDS011;2976;49.764;9.796;2022-11-23T01:41:04;7.50;;;1.43;;
5900;SDS011;2976;49.764;9.796;2022-11-23T01:43:31;6.70;;;2.00;;
5900;SDS011;2976;49.764;9.796;2022-11-23T01:45:57;6.93;;;1.97;;
5900;SDS011;2976;49.764;9.796;2022-11-23T01:48:25;5.07;;;1.60;;
5900;SDS011;2976;49.764;9.796;2022-11-23T01:50:54;2.73;;;1.23;;
5900;SDS011;2976;49.764;9.796;2022-11-23T01:53:22;1.93;;;1.53;;
5900;SDS011;2976;49.764;9.796;2022-11-23T01:55:48;2.50;;;1.53;;
5900;SDS011;2976;49.764;9.796;2022-11-23T01:58:17;6.50;;;1.50;;
5900;SDS011;2976;49.764;9.796;2022-11-23T02:00:45;2.17;;;1.47;;
5900;SDS011;2976;49.764;9.796;2022-11-23T02:03:11;2.80;;;1.40;;
5900;SDS011;2976;49.764;9.796;2022-11-23T02:05:39;2.97;;;1.57;;
5900;SDS011;2976;49.764;9.796;2022-11-23T02:08:07;3.90;;;1.70;;
5900;SDS011;2976;49.764;9.796;2022-11-23T02:10:34;5.20;;;1.73;;
5900;SDS011;2976;49.764;9.796;2022-11-23T02:13:03;12.43;;;1.67;;
5900;SDS011;2976;49.764;9.796;2022-11-23T02:15:32;3.53;;;2.07;;
5900;SDS011;2976;49.764;9.796;2022-11-23T02:17:59;6.93;;;1.60;;
5900;SDS011;2976;49.764;9.796;2022-11-23T02:20:28;2.10;;;1.10;;
5900;SDS011;2976;49.764;9.796;2022-11-23T02:28:20;7.23;;;1.67;;
5900;SDS011;2976;49.764;9.796;2022-11-23T02:30:49;2.63;;;1.53;;
5900;SDS011;2976;49.764;9.796;2022-11-23T02:33:17;4.00;;;1.67;;
5900;SDS011;2976;49.764;9.796;2022-11-23T02:35:46;2.00;;;1.73;;
5900;SDS011;2976;49.764;9.796;2022-11-23T02:38:20;4.57;;;1.47;;
5900;SDS011;2976;49.764;9.796;2022-11-23T02:40:46;9.23;;;1.97;;
5900;SDS011;2976;49.764;9.796;2022-11-23T02:43:12;3.30;;;1.43;;
5900;SDS011;2976;49.764;9.796;2022-11-23T02:45:40;5.47;;;1.83;;
5900;SDS011;2976;49.764;9.796;2022-11-23T02:48:13;3.70;;;2.00;;
5900;SDS011;2976;49.764;9.796;2022-11-23T02:50:39;6.50;;;1.90;;
5900;SDS011;2976;49.764;9.796;2022-11-23T02:53:04;5.57;;;1.43;;
5900;SDS011;2976;49.764;9.796;2022-11-23T02:55:30;3.63;;;1.90;;
5900;SDS011;2976;49.764;9.796;2022-11-23T02:57:55;6.83;;;1.70;;
5900;SDS011;2976;49.764;9.796;2022-11-23T03:00:21;2.93;;;1.67;;
5900;SDS011;2976;49.764;9.796;2022-11-23T03:02:46;3.30;;;1.57;;
5900;SDS011;2976;49.764;9.796;2022-11-23T03:05:12;1.63;;;1.50;;
5900;SDS011;2976;49.764;9.796;2022-11-23T03:07:37;2.20;;;2.03;;
5900;SDS011;2976;49.764;9.796;2022-11-23T03:10:03;2.87;;;1.53;;
5900;SDS011;2976;49.764;9.796;2022-11-23T03:12:29;2.90;;;1.80;;
5900;SDS011;2976;49.764;9.796;2022-11-23T03:14:55;4.03;;;1.90;;
5900;SDS011;2976;49.764;9.796;2022-11-23T03:17:20;1.60;;;1.43;;
5900;SDS011;2976;49.764;9.796;2022-11-23T03:19:46;3.40;;;1.87;;
5900;SDS011;2976;49.764;9.796;2022-11-23T03:22:12;7.07;;;1.50;;
5900;SDS011;2976;49.764;9.796;2022-11-23T03:24:37;4.13;;;1.70;;
5900;SDS011;2976;49.764;9.796;2022-11-23T03:27:03;2.27;;;1.20;;
5900;SDS011;2976;49.764;9.796;2022-11-23T03:29:29;4.17;;;1.63;;
5900;SDS011;2976;49.764;9.796;2022-11-23T03:31:54;5.73;;;1.40;;
5900;SDS011;2976;49.764;9.796;2022-11-23T03:34:20;1.43;;;1.20;;
5900;SDS011;2976;49.764;9.796;2022-11-23T03:36:46;5.27;;;1.40;;
5900;SDS011;2976;49.764;9.796;2022-11-23T03:39:12;5.87;;;1.53;;
5900;SDS011;2976;49.764;9.796;2022-11-23T03:41:38;2.90;;;1.40;;
5900;SDS011;2976;49.764;9.796;2022-11-23T03:44:03;6.70;;;3.10;;
5900;SDS011;2976;49.764;9.796;2022-11-23T03:46:29;3.00;;;1.33;;
5900;SDS011;2976;49.764;9.796;2022-11-23T03:48:54;11.03;;;1.63;;
5900;SDS011;2976;49.764;9.796;2022-11-23T03:51:20;3.90;;;0.93;;
5900;SDS011;2976;49.764;9.796;2022-11-23T03:53:46;4.67;;;1.40;;
5900;SDS011;2976;49.764;9.796;2022-11-23T03:56:12;4.53;;;2.00;;
5900;SDS011;2976;49.764;9.796;2022-11-23T03:58:38;2.90;;;1.40;;
5900;SDS011;2976;49.764;9.796;2022-11-23T04:01:04;7.50;;;2.03;;
5900;SDS011;2976;49.764;9.796;2022-11-23T04:03:29;6.80;;;1.80;;
5900;SDS011;2976;49.764;9.796;2022-11-23T04:05:55;4.33;;;1.50;;
5900;SDS011;2976;49.764;9.796;2022-11-23T04:08:20;6.23;;;1.60;;
5900;SDS011;2976;49.764;9.796;2022-11-23T04:10:46;6.17;;;1.77;;
5900;SDS011;2976;49.764;9.796;2022-11-23T04:13:12;6.63;;;1.60;;
5900;SDS011;2976;49.764;9.796;2022-11-23T04:15:37;3.20;;;1.07;;
5900;SDS011;2976;49.764;9.796;2022-11-23T04:18:03;7.97;;;1.40;;
5900;SDS011;2976;49.764;9.796;2022-11-23T04:20:28;4.40;;;1.80;;
5900;SDS011;2976;49.764;9.796;2022-11-23T04:22:54;5.80;;;1.60;;
5900;SDS011;2976;49.764;9.796;2022-11-23T04:25:20;3.70;;;1.40;;
5900;SDS011;2976;49.764;9.796;2022-11-23T04:27:45;6.27;;;1.00;;
5900;SDS011;2976;49.764;9.796;2022-11-23T04:30:11;4.60;;;1.33;;
5900;SDS011;2976;49.764;9.796;2022-11-23T04:32:37;2.90;;;1.10;;
5900;SDS011;2976;49.764;9.796;2022-11-23T04:35:03;4.50;;;1.03;;
5900;SDS011;2976;49.764;9.796;2022-11-23T04:37:29;6.50;;;1.60;;
5900;SDS011;2976;49.764;9.796;2022-11-23T04:39:54;5.37;;;2.00;;
5900;SDS011;2976;49.764;9.796;2022-11-23T04:42:20;8.03;;;1.50;;
5900;SDS011;2976;49.764;9.796;2022-11-23T04:44:45;1.80;;;1.10;;
5900;SDS011;2976;49.764;9.796;2022-11-23T04:47:11;4.63;;;1.20;;
5900;SDS011;2976;49.764;9.796;2022-11-23T04:49:37;1.87;;;1.30;;
5900;SDS011;2976;49.764;9.796;2022-11-23T04:52:03;2.40;;;1.23;;
5900;SDS011;2976;49.764;9.796;2022-11-23T04:54:29;1.30;;;0.90;;
5900;SDS011;2976;49.764;9.796;2022-11-23T04:56:54;2.90;;;1.13;;
5900;SDS011;2976;49.764;9.796;2022-11-23T04:59:20;2.10;;;1.20;;
5900;SDS011;2976;49.764;9.796;2022-11-23T05:01:46;5.50;;;1.60;;
5900;SDS011;2976;49.764;9.796;2022-11-23T05:04:12;5.00;;;2.20;;
5900;SDS011;2976;49.764;9.796;2022-11-23T05:06:38;4.10;;;1.97;;
5900;SDS011;2976;49.764;9.796;2022-11-23T05:09:04;7.70;;;2.03;;
5900;SDS011;2976;49.764;9.796;2022-11-23T05:11:29;6.00;;;1.60;;
5900;SDS011;2976;49.764;9.796;2022-11-23T05:13:55;2.73;;;1.30;;
5900;SDS011;2976;49.764;9.796;2022-11-23T05:16:20;3.77;;;1.33;;
5900;SDS011;2976;49.764;9.796;2022-11-23T05:18:46;5.80;;;1.90;;
5900;SDS011;2976;49.764;9.796;2022-11-23T05:21:11;8.13;;;2.03;;
5900;SDS011;2976;49.764;9.796;2022-11-23T05:23:37;2.30;;;1.20;;
5900;SDS011;2976;49.764;9.796;2022-11-23T05:26:02;3.83;;;1.40;;
5900;SDS011;2976;49.764;9.796;2022-11-23T05:28:28;13.73;;;1.50;;
5900;SDS011;2976;49.764;9.796;2022-11-23T05:30:53;10.17;;;1.83;;
5900;SDS011;2976;49.764;9.796;2022-11-23T05:33:19;3.57;;;1.30;;
5900;SDS011;2976;49.764;9.796;2022-11-23T05:35:44;2.97;;;1.50;;
5900;SDS011;2976;49.764;9.796;2022-11-23T05:38:10;6.83;;;1.70;;
5900;SDS011;2976;49.764;9.796;2022-11-23T05:40:35;9.70;;;2.03;;
5900;SDS011;2976;49.764;9.796;2022-11-23T05:43:01;2.13;;;1.13;;
5900;SDS011;2976;49.764;9.796;2022-11-23T05:45:27;7.50;;;1.87;;
5900;SDS011;2976;49.764;9.796;2022-11-23T05:47:56;6.33;;;1.33;;
5900;SDS011;2976;49.764;9.796;2022-11-23T05:50:24;5.57;;;1.40;;
5900;SDS011;2976;49.764;9.796;2022-11-23T05:52:51;2.33;;;1.50;;
5900;SDS011;2976;49.764;9.796;2022-11-23T05:55:16;7.47;;;1.70;;
5900;SDS011;2976;49.764;9.796;2022-11-23T05:57:42;6.33;;;1.40;;
5900;SDS011;2976;49.764;9.796;2022-11-23T06:00:09;3.47;;;1.47;;
5900;SDS011;2976;49.764;9.796;2022-11-23T06:02:35;4.33;;;1.50;;
5900;SDS011;2976;49.764;9.796;2022-11-23T06:05:01;5.50;;;1.60;;
5900;SDS011;2976;49.764;9.796;2022-11-23T06:07:27;6.23;;;1.50;;
5900;SDS011;2976;49.764;9.796;2022-11-23T06:09:53;5.70;;;1.90;;
5900;SDS011;2976;49.764;9.796;2022-11-23T06:12:18;5.00;;;0.93;;
5900;SDS011;2976;49.764;9.796;2022-11-23T06:14:44;3.33;;;1.03;;
5900;SDS011;2976;49.764;9.796;2022-11-23T06:17:09;9.43;;;1.80;;
5900;SDS011;2976;49.764;9.796;2022-11-23T06:19:35;10.33;;;1.80;;
5900;SDS011;2976;49.764;9.796;2022-11-23T06:22:00;2.97;;;2.17;;
5900;SDS011;2976;49.764;9.796;2022-11-23T06:24:26;4.00;;;1.57;;
5900;SDS011;2976;49.764;9.796;2022-11-23T06:26:51;3.57;;;1.43;;
5900;SDS011;2976;49.764;9.796;2022-11-23T06:29:18;4.97;;;1.63;;
5900;SDS011;2976;49.764;9.796;2022-11-23T06:31:44;3.27;;;1.60;;
5900;SDS011;2976;49.764;9.796;2022-11-23T06:34:10;5.40;;;1.83;;
5900;SDS011;2976;49.764;9.796;2022-11-23T06:36:36;3.20;;;1.50;;
5900;SDS011;2976;49.764;9.796;2022-11-23T06:39:02;5.03;;;1.43;;
5900;SDS011;2976;49.764;9.796;2022-11-23T06:41:28;6.53;;;2.20;;
5900;SDS011;2976;49.764;9.796;2022-11-23T06:43:53;1.20;;;1.03;;
5900;SDS011;2976;49.764;9.796;2022-11-23T06:46:19;4.70;;;1.47;;
5900;SDS011;2976;49.764;9.796;2022-11-23T06:48:45;4.83;;;1.90;;
5900;SDS011;2976;49.764;9.796;2022-11-23T06:51:11;2.73;;;1.73;;
5900;SDS011;2976;49.764;9.796;2022-11-23T06:53:36;4.97;;;1.83;;
5900;SDS011;2976;49.764;9.796;2022-11-23T06:56:02;7.50;;;1.87;;
5900;SDS011;2976;49.764;9.796;2022-11-23T06:58:28;5.20;;;1.93;;
5900;SDS011;2976;49.764;9.796;2022-11-23T07:00:58;4.43;;;1.37;;
5900;SDS011;2976;49.764;9.796;2022-11-23T07:03:29;5.53;;;1.50;;
5900;SDS011;2976;49.764;9.796;2022-11-23T07:05:55;8.77;;;1.50;;
5900;SDS011;2976;49.764;9.796;2022-11-23T07:08:21;5.10;;;1.60;;
5900;SDS011;2976;49.764;9.796;2022-11-23T07:10:46;3.83;;;1.50;;
5900;SDS011;2976;49.764;9.796;2022-11-23T07:13:12;6.00;;;1.20;;
5900;SDS011;2976;49.764;9.796;2022-11-23T07:15:38;13.83;;;2.10;;
5900;SDS011;2976;49.764;9.796;2022-11-23T07:18:05;3.13;;;1.70;;
5900;SDS011;2976;49.764;9.796;2022-11-23T07:20:31;3.53;;;1.77;;
5900;SDS011;2976;49.764;9.796;2022-11-23T07:22:57;8.20;;;1.13;;
5900;SDS011;2976;49.764;9.796;2022-11-23T07:25:24;3.40;;;1.60;;
5900;SDS011;2976;49.764;9.796;2022-11-23T07:27:56;5.57;;;1.50;;
5900;SDS011;2976;49.764;9.796;2022-11-23T07:30:23;3.33;;;1.90;;
5900;SDS011;2976;49.764;9.796;2022-11-23T07:32:49;3.53;;;1.20;;
5900;SDS011;2976;49.764;9.796;2022-11-23T07:35:16;5.17;;;1.70;;
5900;SDS011;2976;49.764;9.796;2022-11-23T07:37:42;3.43;;;1.70;;
5900;SDS011;2976;49.764;9.796;2022-11-23T07:40:08;7.40;;;2.10;;
5900;SDS011;2976;49.764;9.796;2022-11-23T07:42:34;3.03;;;1.60;;
5900;SDS011;2976;49.764;9.796;2022-11-23T07:45:00;3.67;;;1.70;;
5900;SDS011;2976;49.764;9.796;2022-11-23T07:47:26;2.97;;;1.50;;
5900;SDS011;2976;49.764;9.796;2022-11-23T07:49:51;5.80;;;1.53;;
5900;SDS011;2976;49.764;9.796;2022-11-23T07:52:17;6.63;;;1.60;;
5900;SDS011;2976;49.764;9.796;2022-11-23T07:54:42;3.33;;;1.40;;
5900;SDS011;2976;49.764;9.796;2022-11-23T07:57:08;5.43;;;2.17;;
5900;SDS011;2976;49.764;9.796;2022-11-23T07:59:34;3.67;;;2.00;;
5900;SDS011;2976;49.764;9.796;2022-11-23T08:02:00;2.80;;;1.40;;
5900;SDS011;2976;49.764;9.796;2022-11-23T08:04:26;4.53;;;1.70;;
5900;SDS011;2976;49.764;9.796;2022-11-23T08:06:51;11.30;;;1.80;;
5900;SDS011;2976;49.764;9.796;2022-11-23T08:09:18;11.13;;;3.07;;
5900;SDS011;2976;49.764;9.796;2022-11-23T08:11:43;6.40;;;2.63;;
5900;SDS011;2976;49.764;9.796;2022-11-23T08:14:09;9.97;;;2.43;;
5900;SDS011;2976;49.764;9.796;2022-11-23T08:16:35;4.47;;;2.13;;
5900;SDS011;2976;49.764;9.796;2022-11-23T08:19:00;6.97;;;1.30;;
5900;SDS011;2976;49.764;9.796;2022-11-23T08:21:26;6.87;;;1.83;;
5900;SDS011;2976;49.764;9.796;2022-11-23T08:23:51;7.10;;;2.43;;
5900;SDS011;2976;49.764;9.796;2022-11-23T08:26:17;6.90;;;1.40;;
5900;SDS011;2976;49.764;9.796;2022-11-23T08:28:42;9.07;;;1.87;;
5900;SDS011;2976;49.764;9.796;2022-11-23T08:31:09;4.50;;;1.60;;
5900;SDS011;2976;49.764;9.796;2022-11-23T08:33:35;8.20;;;1.30;;
5900;SDS011;2976;49.764;9.796;2022-11-23T08:36:02;4.17;;;1.43;;
5900;SDS011;2976;49.764;9.796;2022-11-23T08:38:29;9.47;;;1.83;;
5900;SDS011;2976;49.764;9.796;2022-11-23T08:40:58;3.20;;;1.83;;
5900;SDS011;2976;49.764;9.796;2022-11-23T08:43:24;6.13;;;1.63;;
5900;SDS011;2976;49.764;9.796;2022-11-23T08:45:53;5.77;;;1.53;;
5900;SDS011;2976;49.764;9.796;2022-11-23T08:48:22;3.47;;;1.80;;
5900;SDS011;2976;49.764;9.796;2022-11-23T08:50:49;5.37;;;1.40;;
5900;SDS011;2976;49.764;9.796;2022-11-23T08:53:15;2.40;;;1.80;;
5900;SDS011;2976;49.764;9.796;2022-11-23T08:55:40;5.77;;;2.17;;
5900;SDS011;2976;49.764;9.796;2022-11-23T08:58:06;7.73;;;2.53;;
5900;SDS011;2976;49.764;9.796;2022-11-23T09:00:33;9.97;;;2.03;;
5900;SDS011;2976;49.764;9.796;2022-11-23T09:02:59;2.60;;;1.20;;
5900;SDS011;2976;49.764;9.796;2022-11-23T09:05:25;3.60;;;2.07;;
5900;SDS011;2976;49.764;9.796;2022-11-23T09:07:52;4.80;;;1.80;;
5900;SDS011;2976;49.764;9.796;2022-11-23T09:10:18;5.53;;;1.40;;
5900;SDS011;2976;49.764;9.796;2022-11-23T09:12:43;3.97;;;1.43;;
5900;SDS011;2976;49.764;9.796;2022-11-23T09:15:09;7.37;;;1.80;;
5900;SDS011;2976;49.764;9.796;2022-11-23T09:17:35;10.20;;;1.37;;
5900;SDS011;2976;49.764;9.796;2022-11-23T09:20:00;3.97;;;1.57;;
5900;SDS011;2976;49.764;9.796;2022-11-23T09:22:26;4.30;;;1.30;;
5900;SDS011;2976;49.764;9.796;2022-11-23T09:24:52;6.63;;;2.27;;
5900;SDS011;2976;49.764;9.796;2022-11-23T09:27:18;4.43;;;1.57;;
5900;SDS011;2976;49.764;9.796;2022-11-23T09:29:44;9.20;;;1.93;;
5900;SDS011;2976;49.764;9.796;2022-11-23T09:32:09;1.53;;;1.00;;
5900;SDS011;2976;49.764;9.796;2022-11-23T09:34:35;4.40;;;1.30;;
5900;SDS011;2976;49.764;9.796;2022-11-23T09:37:01;6.03;;;1.40;;
5900;SDS011;2976;49.764;9.796;2022-11-23T09:39:27;6.87;;;1.67;;
5900;SDS011;2976;49.764;9.796;2022-11-23T09:42:02;5.60;;;1.87;;
5900;SDS011;2976;49.764;9.796;2022-11-23T09:52:47;5.87;;;1.57;;
5900;SDS011;2976;49.764;9.796;2022-11-23T09:57:45;5.63;;;1.20;;
5900;SDS011;2976;49.764;9.796;2022-11-23T10:00:16;3.37;;;1.20;;
5900;SDS011;2976;49.764;9.796;2022-11-23T10:02:45;11.40;;;1.87;;
5900;SDS011;2976;49.764;9.796;2022-11-23T10:05:21;5.20;;;1.37;;
5900;SDS011;2976;49.764;9.796;2022-11-23T10:11:03;4.03;;;1.50;;
5900;SDS011;2976;49.764;9.796;2022-11-23T10:13:40;5.70;;;1.20;;
5900;SDS011;2976;49.764;9.796;2022-11-23T10:21:16;5.50;;;1.57;;
5900;SDS011;2976;49.764;9.796;2022-11-23T10:26:34;2.67;;;1.30;;
5900;SDS011;2976;49.764;9.796;2022-11-23T10:29:19;5.07;;;1.60;;
5900;SDS011;2976;49.764;9.796;2022-11-23T10:31:47;3.87;;;1.20;;
5900;SDS011;2976;49.764;9.796;2022-11-23T10:34:15;9.73;;;2.07;;
5900;SDS011;2976;49.764;9.796;2022-11-23T10:36:46;4.90;;;1.50;;
5900;SDS011;2976;49.764;9.796;2022-11-23T10:41:50;5.33;;;2.50;;
5900;SDS011;2976;49.764;9.796;2022-11-23T10:46:42;1.33;;;1.23;;
5900;SDS011;2976;49.764;9.796;2022-11-23T10:49:11;1.80;;;1.40;;
5900;SDS011;2976;49.764;9.796;2022-11-23T10:51:47;3.90;;;1.47;;
5900;SDS011;2976;49.764;9.796;2022-11-23T10:57:19;1.90;;;1.43;;
5900;SDS011;2976;49.764;9.796;2022-11-23T11:02:39;3.60;;;1.10;;
5900;SDS011;2976;49.764;9.796;2022-11-23T11:05:12;4.10;;;1.57;;
5900;SDS011;2976;49.764;9.796;2022-11-23T11:07:50;8.00;;;2.73;;
5900;SDS011;2976;49.764;9.796;2022-11-23T11:13:00;4.30;;;1.33;;
5900;SDS011;2976;49.764;9.796;2022-11-23T11:15:26;4.83;;;1.43;;
5900;SDS011;2976;49.764;9.796;2022-11-23T11:17:56;9.83;;;1.23;;
5900;SDS011;2976;49.764;9.796;2022-11-23T11:22:51;6.60;;;1.93;;
5900;SDS011;2976;49.764;9.796;2022-11-23T11:25:35;4.60;;;1.37;;
5900;SDS011;2976;49.764;9.796;2022-11-23T11:28:17;6.33;;;1.20;;
5900;SDS011;2976;49.764;9.796;2022-11-23T11:30:54;9.60;;;1.57;;
5900;SDS011;2976;49.764;9.796;2022-11-23T11:33:28;2.87;;;1.50;;
5900;SDS011;2976;49.764;9.796;2022-11-23T11:36:01;5.47;;;1.40;;
5900;SDS011;2976;49.764;9.796;2022-11-23T11:38:34;2.63;;;1.10;;
5900;SDS011;2976;49.764;9.796;2022-11-23T11:41:09;9.30;;;1.97;;
5900;SDS011;2976;49.764;9.796;2022-11-23T11:43:44;1.70;;;1.00;;
5900;SDS011;2976;49.764;9.796;2022-11-23T11:46:26;11.03;;;1.47;;
5900;SDS011;2976;49.764;9.796;2022-11-23T11:48:58;3.60;;;1.30;;
5900;SDS011;2976;49.764;9.796;2022-11-23T11:51:40;2.47;;;1.13;;
5900;SDS011;2976;49.764;9.796;2022-11-23T11:54:28;7.07;;;1.30;;
5900;SDS011;2976;49.764;9.796;2022-11-23T11:57:16;2.93;;;1.07;;
5900;SDS011;2976;49.764;9.796;2022-11-23T11:59:46;4.27;;;1.10;;
5900;SDS011;2976;49.764;9.796;2022-11-23T12:04:55;3.47;;;2.07;;
5900;SDS011;2976;49.764;9.796;2022-11-23T12:13:17;5.63;;;1.83;;
5900;SDS011;2976;49.764;9.796;2022-11-23T12:15:49;5.00;;;1.20;;
5900;SDS011;2976;49.764;9.796;2022-11-23T12:18:40;3.00;;;1.17;;
5900;SDS011;2976;49.764;9.796;2022-11-23T12:21:21;4.73;;;1.47;;
5900;SDS011;2976;49.764;9.796;2022-11-23T12:29:39;3.67;;;1.03;;
5900;SDS011;2976;49.764;9.796;2022-11-23T12:32:24;8.87;;;1.43;;
5900;SDS011;2976;49.764;9.796;2022-11-23T12:38:28;6.40;;;1.20;;
5900;SDS011;2976;49.764;9.796;2022-11-23T12:46:37;1.67;;;1.03;;
5900;SDS011;2976;49.764;9.796;2022-11-23T12:52:28;6.17;;;0.60;;
5900;SDS011;2976;49.764;9.796;2022-11-23T12:57:35;2.57;;;0.93;;
5900;SDS011;2976;49.764;9.796;2022-11-23T13:00:15;8.63;;;1.57;;
5900;SDS011;2976;49.764;9.796;2022-11-23T13:05:52;3.60;;;1.10;;
5900;SDS011;2976;49.764;9.796;2022-11-23T13:22:14;1.67;;;0.80;;
5900;SDS011;2976;49.764;9.796;2022-11-23T13:25:12;5.90;;;1.30;;
5900;SDS011;2976;49.764;9.796;2022-11-23T13:36:01;9.57;;;1.83;;
5900;SDS011;2976;49.764;9.796;2022-11-23T13:38:27;6.73;;;2.60;;
5900;SDS011;2976;49.764;9.796;2022-11-23T13:41:01;12.77;;;3.50;;
5900;SDS011;2976;49.764;9.796;2022-11-23T13:43:31;5.30;;;1.30;;
5900;SDS011;2976;49.764;9.796;2022-11-23T13:46:19;8.33;;;1.50;;
5900;SDS011;2976;49.764;9.796;2022-11-23T13:48:50;1.83;;;1.27;;
5900;SDS011;2976;49.764;9.796;2022-11-23T13:51:30;6.83;;;2.17;;
5900;SDS011;2976;49.764;9.796;2022-11-23T13:54:01;5.60;;;1.83;;
5900;SDS011;2976;49.764;9.796;2022-11-23T13:56:38;1.27;;;0.93;;
5900;SDS011;2976;49.764;9.796;2022-11-23T14:04:31;3.50;;;1.47;;
5900;SDS011;2976;49.764;9.796;2022-11-23T14:12:36;4.60;;;1.73;;
5900;SDS011;2976;49.764;9.796;2022-11-23T14:40:11;2.57;;;1.00;;
5900;SDS011;2976;49.764;9.796;2022-11-23T14:42:45;5.57;;;1.50;;
5900;SDS011;2976;49.764;9.796;2022-11-23T14:45:16;15.10;;;1.87;;
5900;SDS011;2976;49.764;9.796;2022-11-23T14:47:44;12.17;;;2.07;;
5900;SDS011;2976;49.764;9.796;2022-11-23T14:50:20;4.17;;;2.60;;
5900;SDS011;2976;49.764;9.796;2022-11-23T14:52:53;4.90;;;1.83;;
5900;SDS011;2976;49.764;9.796;2022-11-23T14:55:25;7.70;;;2.30;;
5900;SDS011;2976;49.764;9.796;2022-11-23T14:57:59;6.00;;;1.33;;
5900;SDS011;2976;49.764;9.796;2022-11-23T15:00:34;5.70;;;1.73;;
5900;SDS011;2976;49.764;9.796;2022-11-23T15:03:08;4.40;;;2.60;;
5900;SDS011;2976;49.764;9.796;2022-11-23T15:05:44;10.20;;;2.40;;
5900;SDS011;2976;49.764;9.796;2022-11-23T15:08:17;6.30;;;2.20;;
5900;SDS011;2976;49.764;9.796;2022-11-23T15:10:58;10.17;;;2.57;;
5900;SDS011;2976;49.764;9.796;2022-11-23T15:13:52;7.00;;;1.40;;
5900;SDS011;2976;49.764;9.796;2022-11-23T15:16:28;3.80;;;1.10;;
5900;SDS011;2976;49.764;9.796;2022-11-23T15:18:54;5.00;;;1.70;;
5900;SDS011;2976;49.764;9.796;2022-11-23T15:21:20;2.37;;;1.33;;
5900;SDS011;2976;49.764;9.796;2022-11-23T15:23:49;5.03;;;1.60;;
5900;SDS011;2976;49.764;9.796;2022-11-23T15:26:17;9.27;;;2.30;;
5900;SDS011;2976;49.764;9.796;2022-11-23T15:29:26;7.67;;;2.07;;
5900;SDS011;2976;49.764;9.796;2022-11-23T15:31:55;5.07;;;2.43;;
5900;SDS011;2976;49.764;9.796;2022-11-23T15:34:21;11.27;;;2.83;;
5900;SDS011;2976;49.764;9.796;2022-11-23T15:36:46;10.27;;;2.80;;
5900;SDS011;2976;49.764;9.796;2022-11-23T15:39:15;11.03;;;3.17;;
5900;SDS011;2976;49.764;9.796;2022-11-23T15:41:46;8.53;;;1.90;;
5900;SDS011;2976;49.764;9.796;2022-11-23T15:46:44;4.80;;;1.90;;
5900;SDS011;2976;49.764;9.796;2022-11-23T15:49:13;3.70;;;1.80;;
5900;SDS011;2976;49.764;9.796;2022-11-23T15:51:40;6.20;;;2.57;;
5900;SDS011;2976;49.764;9.796;2022-11-23T15:54:17;3.87;;;1.90;;
5900;SDS011;2976;49.764;9.796;2022-11-23T15:56:46;3.07;;;1.70;;
5900;SDS011;2976;49.764;9.796;2022-11-23T15:59:23;5.43;;;2.30;;
5900;SDS011;2976;49.764;9.796;2022-11-23T16:02:14;5.20;;;1.90;;
5900;SDS011;2976;49.764;9.796;2022-11-23T16:04:40;7.67;;;2.57;;
5900;SDS011;2976;49.764;9.796;2022-11-23T16:07:18;9.53;;;3.60;;
5900;SDS011;2976;49.764;9.796;2022-11-23T16:09:46;5.10;;;2.40;;
5900;SDS011;2976;49.764;9.796;2022-11-23T16:12:21;2.50;;;1.70;;
5900;SDS011;2976;49.764;9.796;2022-11-23T16:14:56;8.03;;;2.13;;
5900;SDS011;2976;49.764;9.796;2022-11-23T16:17:42;4.20;;;1.70;;
5900;SDS011;2976;49.764;9.796;2022-11-23T16:20:13;3.93;;;2.03;;
5900;SDS011;2976;49.764;9.796;2022-11-23T16:22:40;7.67;;;2.63;;
5900;SDS011;2976;49.764;9.796;2022-11-23T16:25:22;6.57;;;2.50;;
5900;SDS011;2976;49.764;9.796;2022-11-23T16:33:01;3.20;;;1.73;;
5900;SDS011;2976;49.764;9.796;2022-11-23T16:35:27;4.10;;;2.93;;
5900;SDS011;2976;49.764;9.796;2022-11-23T16:37:53;10.50;;;2.70;;
5900;SDS011;2976;49.764;9.796;2022-11-23T16:40:18;4.93;;;2.83;;
5900;SDS011;2976;49.764;9.796;2022-11-23T16:42:44;8.77;;;1.83;;
5900;SDS011;2976;49.764;9.796;2022-11-23T16:45:11;3.80;;;2.27;;
5900;SDS011;2976;49.764;9.796;2022-11-23T16:47:49;3.60;;;2.23;;
5900;SDS011;2976;49.764;9.796;2022-11-23T16:50:25;5.20;;;1.80;;
5900;SDS011;2976;49.764;9.796;2022-11-23T16:52:51;6.20;;;2.50;;
5900;SDS011;2976;49.764;9.796;2022-11-23T16:55:17;3.37;;;1.80;;
5900;SDS011;2976;49.764;9.796;2022-11-23T16:57:43;4.73;;;2.40;;
5900;SDS011;2976;49.764;9.796;2022-11-23T17:00:21;5.23;;;2.60;;
5900;SDS011;2976;49.764;9.796;2022-11-23T17:02:48;9.67;;;5.20;;
5900;SDS011;2976;49.764;9.796;2022-11-23T17:05:14;8.33;;;2.20;;
5900;SDS011;2976;49.764;9.796;2022-11-23T17:07:41;6.87;;;3.47;;
5900;SDS011;2976;49.764;9.796;2022-11-23T17:10:07;14.17;;;4.00;;
5900;SDS011;2976;49.764;9.796;2022-11-23T17:12:34;8.07;;;4.07;;
5900;SDS011;2976;49.764;9.796;2022-11-23T17:15:02;5.77;;;3.20;;
5900;SDS011;2976;49.764;9.796;2022-11-23T17:17:28;11.47;;;5.87;;
5900;SDS011;2976;49.764;9.796;2022-11-23T17:19:54;15.60;;;5.60;;
5900;SDS011;2976;49.764;9.796;2022-11-23T17:22:20;11.60;;;5.33;;
5900;SDS011;2976;49.764;9.796;2022-11-23T17:24:46;11.53;;;4.00;;
5900;SDS011;2976;49.764;9.796;2022-11-23T17:27:14;9.50;;;3.07;;
5900;SDS011;2976;49.764;9.796;2022-11-23T17:29:42;4.33;;;2.80;;
5900;SDS011;2976;49.764;9.796;2022-11-23T17:32:09;10.07;;;3.10;;
5900;SDS011;2976;49.764;9.796;2022-11-23T17:34:36;9.83;;;4.13;;
5900;SDS011;2976;49.764;9.796;2022-11-23T17:37:02;8.70;;;3.27;;
5900;SDS011;2976;49.764;9.796;2022-11-23T17:39:28;3.87;;;1.87;;
5900;SDS011;2976;49.764;9.796;2022-11-23T17:41:53;6.77;;;3.10;;
5900;SDS011;2976;49.764;9.796;2022-11-23T17:44:21;8.17;;;2.93;;
5900;SDS011;2976;49.764;9.796;2022-11-23T17:46:46;6.20;;;2.70;;